Map

Track Data

SID SEASON NUMBER BASIN SUBBASIN NAME ISO_TIME NATURE LAT LON WMO_WIND WMO_PRES WMO_AGENCY TRACK_TYPE DIST2LAND LANDFALL IFLAG USA_AGENCY USA_ATCF_ID USA_LAT USA_LON USA_RECORD USA_STATUS USA_WIND USA_PRES USA_SSHS USA_R34_NE USA_R34_SE USA_R34_SW USA_R34_NW USA_R50_NE USA_R50_SE USA_R50_SW USA_R50_NW USA_R64_NE USA_R64_SE USA_R64_SW USA_R64_NW USA_POCI USA_ROCI USA_RMW USA_EYE TOKYO_LAT TOKYO_LON TOKYO_GRADE TOKYO_WIND TOKYO_PRES TOKYO_R50_DIR TOKYO_R50_LONG TOKYO_R50_SHORT TOKYO_R30_DIR TOKYO_R30_LONG TOKYO_R30_SHORT TOKYO_LAND CMA_LAT CMA_LON CMA_CAT CMA_WIND CMA_PRES HKO_LAT HKO_LON HKO_CAT HKO_WIND HKO_PRES NEWDELHI_LAT NEWDELHI_LON NEWDELHI_GRADE NEWDELHI_WIND NEWDELHI_PRES NEWDELHI_CI NEWDELHI_DP NEWDELHI_POCI REUNION_LAT REUNION_LON REUNION_TYPE REUNION_WIND REUNION_PRES REUNION_TNUM REUNION_CI REUNION_RMW REUNION_R34_NE REUNION_R34_SE REUNION_R34_SW REUNION_R34_NW REUNION_R50_NE REUNION_R50_SE REUNION_R50_SW REUNION_R50_NW REUNION_R64_NE REUNION_R64_SE REUNION_R64_SW REUNION_R64_NW BOM_LAT BOM_LON BOM_TYPE BOM_WIND BOM_PRES BOM_TNUM BOM_CI BOM_RMW BOM_R34_NE BOM_R34_SE BOM_R34_SW BOM_R34_NW BOM_R50_NE BOM_R50_SE BOM_R50_SW BOM_R50_NW BOM_R64_NE BOM_R64_SE BOM_R64_SW BOM_R64_NW BOM_ROCI BOM_POCI BOM_EYE BOM_POS_METHOD BOM_PRES_METHOD NADI_LAT NADI_LON NADI_CAT NADI_WIND NADI_PRES WELLINGTON_LAT WELLINGTON_LON WELLINGTON_WIND WELLINGTON_PRES DS824_LAT DS824_LON DS824_STAGE DS824_WIND DS824_PRES TD9636_LAT TD9636_LON TD9636_STAGE TD9636_WIND TD9636_PRES TD9635_LAT TD9635_LON TD9635_WIND TD9635_PRES TD9635_ROCI NEUMANN_LAT NEUMANN_LON NEUMANN_CLASS NEUMANN_WIND NEUMANN_PRES MLC_LAT MLC_LON MLC_CLASS MLC_WIND MLC_PRES USA_GUST BOM_GUST BOM_GUST_PER REUNION_GUST REUNION_GUST_PER USA_SEAHGT USA_SEARAD_NE USA_SEARAD_SE USA_SEARAD_SW USA_SEARAD_NW STORM_SPEED STORM_DIR
1921337N10146 1921 68 WP MM NOT_NAMED 1921-12-03 10:00:00 NR 10.2000 145.500 main 1383 1383 __________O___ -1 10.2000 145.500 7 4 286
1921337N10146 1921 68 WP MM NOT_NAMED 1921-12-03 12:00:00 NR 10.2392 145.360 main 1384 1385 __________P___ -1 10.2392 145.360 7 4 286
1921337N10146 1921 68 WP MM NOT_NAMED 1921-12-03 15:00:00 NR 10.3021 145.146 main 1399 1399 __________P___ -1 10.3021 145.146 7 5 288
1921337N10146 1921 68 WP MM NOT_NAMED 1921-12-03 18:00:00 NR 10.3753 144.922 main 1413 1413 __________P___ -1 10.3753 144.922 7 5 290
1921337N10146 1921 68 WP MM NOT_NAMED 1921-12-03 21:00:00 NR 10.4652 144.684 main 1427 1427 __________P___ -1 10.4652 144.684 7 5 291
1921337N10146 1921 68 WP MM NOT_NAMED 1921-12-03 22:00:00 NR 10.5000 144.600 main 1429 1429 __________O___ -1 10.5000 144.600 7 6 294
1921337N10146 1921 68 WP MM NOT_NAMED 1921-12-04 00:00:00 NR 10.5776 144.425 main 1443 1443 __________P___ -1 10.5776 144.425 7 6 296
1921337N10146 1921 68 WP MM NOT_NAMED 1921-12-04 03:00:00 NR 10.7129 144.151 main 1458 1460 __________P___ -1 10.7129 144.151 7 6 298
1921337N10146 1921 68 WP MM NOT_NAMED 1921-12-04 06:00:00 NR 10.8679 143.870 main 1486 1486 __________P___ -1 10.8679 143.870 7 6 301
1921337N10146 1921 68 WP MM NOT_NAMED 1921-12-04 09:00:00 NR 11.0396 143.591 main 1504 1504 __________P___ -1 11.0396 143.591 7 6 303
1921337N10146 1921 68 WP MM NOT_NAMED 1921-12-04 10:00:00 NR 11.1000 143.500 main 1518 1518 __________O___ -1 11.1000 143.500 7 6 305
1921337N10146 1921 68 WP MM NOT_NAMED 1921-12-04 12:00:00 NR 11.2245 143.322 main 1534 1534 __________P___ -1 11.2245 143.322 7 6 307
1921337N10146 1921 68 WP MM NOT_NAMED 1921-12-04 15:00:00 NR 11.4240 143.062 main 1554 1550 __________P___ -1 11.4240 143.062 7 6 309
1921337N10146 1921 68 WP MM NOT_NAMED 1921-12-04 18:00:00 NR 11.6303 142.812 main 1564 1564 __________P___ -1 11.6303 142.812 7 6 311
1921337N10146 1921 68 WP MM NOT_NAMED 1921-12-04 21:00:00 NR 11.8342 142.575 main 1578 1578 __________P___ -1 11.8342 142.575 7 6 311
1921337N10146 1921 68 WP MM NOT_NAMED 1921-12-04 22:00:00 NR 11.9000 142.500 main 1585 1582 __________O___ -1 11.9000 142.500 2 6 310
1921337N10146 1921 68 WP MM NOT_NAMED 1921-12-05 00:00:00 NR 12.0144 142.355 main 1592 1589 __________P___ -1 12.0144 142.355 2 5 309
1921337N10146 1921 68 WP MM NOT_NAMED 1921-12-05 03:00:00 NR 12.1797 142.150 main 1608 1605 __________P___ -1 12.1797 142.150 2 5 311
1921337N10146 1921 68 WP MM NOT_NAMED 1921-12-05 06:00:00 NR 12.3483 141.956 main 1613 1616 __________P___ -1 12.3483 141.956 2 5 313
1921337N10146 1921 68 WP MM NOT_NAMED 1921-12-05 09:00:00 NR 12.5328 141.764 main 1626 1626 __________P___ -1 12.5328 141.764 2 5 315
1921337N10146 1921 68 WP MM NOT_NAMED 1921-12-05 10:00:00 NR 12.6000 141.700 main 1632 1632 __________O___ -1 12.6000 141.700 2 6 318
1921337N10146 1921 68 WP MM NOT_NAMED 1921-12-05 12:00:00 NR 12.7548 141.556 main 1648 1644 __________P___ -1 12.7548 141.556 2 6 319
1921337N10146 1921 68 WP MM NOT_NAMED 1921-12-05 15:00:00 NR 13.0060 141.340 main 1657 1657 __________P___ -1 13.0060 141.340 2 7 321
1921337N10146 1921 68 WP MM NOT_NAMED 1921-12-05 18:00:00 NR 13.2662 141.135 main 1680 1674 __________P___ -1 13.2662 141.135 2 6 324
1921337N10146 1921 68 WP MM NOT_NAMED 1921-12-05 21:00:00 NR 13.5197 140.953 main 1675 1665 __________P___ -1 13.5197 140.953 2 6 326
1921337N10146 1921 68 WP MM NOT_NAMED 1921-12-05 22:00:00 NR 13.6000 140.900 main 1666 1657 __________O___ -1 13.6000 140.900 2 5 329
1921337N10146 1921 68 WP MM NOT_NAMED 1921-12-06 00:00:00 NR 13.7473 140.810 main 1657 1650 __________P___ -1 13.7473 140.810 2 5 331
1921337N10146 1921 68 WP MM NOT_NAMED 1921-12-06 03:00:00 NR 13.9558 140.701 main 1652 1644 __________P___ -1 13.9558 140.701 2 5 334
1921337N10146 1921 68 WP MM NOT_NAMED 1921-12-06 06:00:00 NR 14.1520 140.611 main 1646 1637 __________P___ -1 14.1520 140.611 2 4 336
1921337N10146 1921 68 WP MM NOT_NAMED 1921-12-06 09:00:00 NR 14.3391 140.528 main 1637 1637 __________P___ -1 14.3391 140.528 2 4 338
1921337N10146 1921 68 WP MM NOT_NAMED 1921-12-06 10:00:00 NR 14.4000 140.500 main 1639 1631 __________O___ -1 14.4000 140.500 2 4 332
1921337N10146 1921 68 WP MM NOT_NAMED 1921-12-06 12:00:00 NR 14.5145 140.433 main 1631 1625 __________P___ -1 14.5145 140.433 2 4 330
1921337N10146 1921 68 WP MM NOT_NAMED 1921-12-06 15:00:00 NR 14.6798 140.333 main 1625 1616 __________P___ -1 14.6798 140.333 2 4 330
1921337N10146 1921 68 WP MM NOT_NAMED 1921-12-06 18:00:00 NR 14.8484 140.233 main 1616 1609 __________P___ -1 14.8484 140.233 2 4 331
1921337N10146 1921 68 WP MM NOT_NAMED 1921-12-06 21:00:00 NR 15.0328 140.133 main 1609 1609 __________P___ -1 15.0328 140.133 2 4 333
1921337N10146 1921 68 WP MM NOT_NAMED 1921-12-06 22:00:00 NR 15.1000 140.100 main 1611 1602 __________O___ -1 15.1000 140.100 2 5 335
1921337N10146 1921 68 WP MM NOT_NAMED 1921-12-07 00:00:00 NR 15.2443 140.031 main 1602 1596 __________P___ -1 15.2443 140.031 2 5 336
1921337N10146 1921 68 WP MM NOT_NAMED 1921-12-07 03:00:00 NR 15.4795 139.927 main 1598 1592 __________P___ -1 15.4795 139.927 2 5 338
1921337N10146 1921 68 WP MM NOT_NAMED 1921-12-07 06:00:00 NR 15.7346 139.825 main 1592 1589 __________P___ -1 15.7346 139.825 2 6 340
1921337N10146 1921 68 WP MM NOT_NAMED 1921-12-07 09:00:00 NR 16.0063 139.730 main 1589 1589 __________P___ -1 16.0063 139.730 2 6 342
1921337N10146 1921 68 WP MM NOT_NAMED 1921-12-07 10:00:00 NR 16.1000 139.700 main 1592 1587 __________O___ -1 16.1000 139.700 2 6 342
1921337N10146 1921 68 WP MM NOT_NAMED 1921-12-07 12:00:00 NR 16.2886 139.642 main 1587 1587 __________P___ -1 16.2886 139.642 2 6 345
1921337N10146 1921 68 WP MM NOT_NAMED 1921-12-07 15:00:00 NR 16.5841 139.560 main 1596 1586 __________P___ -1 16.5841 139.560 2 6 346
1921337N10146 1921 68 WP MM NOT_NAMED 1921-12-07 18:00:00 NR 16.8891 139.487 main 1595 1592 __________P___ -1 16.8891 139.487 2 6 348
1921337N10146 1921 68 WP MM NOT_NAMED 1921-12-07 21:00:00 NR 17.1975 139.420 main 1596 1596 __________P___ -1 17.1975 139.420 2 6 349
1921337N10146 1921 68 WP MM NOT_NAMED 1921-12-07 22:00:00 NR 17.3000 139.400 main 1599 1599 __________O___ -1 17.3000 139.400 2 6 351
1921337N10146 1921 68 WP MM NOT_NAMED 1921-12-08 00:00:00 NR 17.5026 139.358 main 1607 1601 __________P___ -1 17.5026 139.358 2 6 349
1921337N10146 1921 68 WP MM NOT_NAMED 1921-12-08 03:00:00 NR 17.8066 139.302 main 1609 1609 __________P___ -1 17.8066 139.302 2 6 351
1921337N10146 1921 68 WP MM NOT_NAMED 1921-12-08 06:00:00 NR 18.1079 139.253 main 1621 1611 __________P___ -1 18.1079 139.253 2 6 352
1921337N10146 1921 68 WP MM NOT_NAMED 1921-12-08 09:00:00 NR 18.4034 139.212 main 1624 1624 __________P___ -1 18.4034 139.212 2 6 352
1921337N10146 1921 68 WP MM NOT_NAMED 1921-12-08 10:00:00 NR 18.5000 139.200 main 1629 1622 __________O___ -1 18.5000 139.200 2 5 344
1921337N10146 1921 68 WP MM NOT_NAMED 1921-12-08 12:00:00 NR 18.6470 139.144 main 1622 1593 __________P___ -1 18.6470 139.144 2 5 341
1921337N10146 1921 68 WP MM NOT_NAMED 1921-12-08 15:00:00 NR 18.8603 139.066 main 1593 1568 __________P___ -1 18.8603 139.066 2 5 347
1921337N10146 1921 68 WP MM NOT_NAMED 1921-12-08 18:00:00 NR 19.1121 139.027 main 1568 1535 __________P___ -1 19.1121 139.027 2 6 358
1921337N10146 1921 68 WP MM NOT_NAMED 1921-12-08 21:00:00 NR 19.4558 139.064 main 1535 1526 __________P___ -1 19.4558 139.064 2 7 8
1921337N10146 1921 68 WP MM NOT_NAMED 1921-12-08 22:00:00 NR 19.6000 139.100 main 1526 1492 __________O___ -1 19.6000 139.100 2 11 13
1921337N10146 1921 68 WP MM NOT_NAMED 1921-12-09 00:00:00 NR 19.9663 139.197 main 1492 1445 __________P___ -1 19.9663 139.197 2 13 17
1921337N10146 1921 68 WP MM NOT_NAMED 1921-12-09 03:00:00 NR 20.6169 139.424 main 1445 1397 __________P___ -1 20.6169 139.424 2 15 20
1921337N10146 1921 68 WP MM NOT_NAMED 1921-12-09 06:00:00 NR 21.3362 139.743 main 1397 1330 __________P___ -1 21.3362 139.743 2 16 25
1921337N10146 1921 68 WP MM NOT_NAMED 1921-12-09 09:00:00 NR 22.0651 140.148 main 1330 1315 __________P___ -1 22.0651 140.148 2 16 28
1921337N10146 1921 68 WP MM NOT_NAMED 1921-12-09 10:00:00 NR 22.3000 140.300 main 1315 1283 __________O___ -1 22.3000 140.300 2 16 33
1921337N10146 1921 68 WP MM NOT_NAMED 1921-12-09 12:00:00 NR 22.7483 140.629 main 1283 1234 __________P___ -1 22.7483 140.629 2 16 37
1921337N10146 1921 68 WP MM NOT_NAMED 1921-12-09 15:00:00 NR 23.3738 141.175 main 1234 1200 __________P___ -1 23.3738 141.175 2 16 41
1921337N10146 1921 68 WP MM NOT_NAMED 1921-12-09 18:00:00 NR 23.9576 141.768 main 1200 1176 __________P___ -1 23.9576 141.768 2 16 44
1921337N10146 1921 68 WP MM NOT_NAMED 1921-12-09 21:00:00 NR 24.5164 142.389 main 1179 1163 __________P___ -1 24.5164 142.389 2 16 46
1921337N10146 1921 68 WP MM NOT_NAMED 1921-12-09 22:00:00 NR 24.7000 142.600 main 1163 __________O___ -1 24.7000 142.600 2 16 46

Digital Typhoon Data and Search

About IBTrACS Database

This database is a web-friendly format of International Best Track Archive for Climate Stewardship (IBTrACS), a global best track data archive curated by NOAA dating back to 1842.

Updated: 2021-12-01